createdAt,value
2022-09-23T00:01:24.128Z,95148.72
2022-09-23T00:04:07.150Z,95153.44
2022-09-23T00:06:50.153Z,95141.16
2022-09-23T00:09:33.479Z,95147.53
2022-09-23T00:12:17.050Z,95147.09
2022-09-23T00:15:00.071Z,95150.03
2022-09-23T00:17:45.231Z,95144.69
2022-09-23T00:20:28.461Z,95140.69
2022-09-23T00:23:11.429Z,95142.69
2022-09-23T00:25:57.758Z,95152.59
2022-09-23T00:28:41.207Z,95148.69
2022-09-23T00:31:27.408Z,95147.25
2022-09-23T00:34:12.485Z,95145.84
2022-09-23T00:36:55.968Z,95138.72
2022-09-23T00:39:39.178Z,95125.19
2022-09-23T00:42:23.797Z,95135.97
2022-09-23T00:45:12.131Z,95134.78
2022-09-23T00:47:58.102Z,95138.56
2022-09-23T00:50:45.162Z,95143.53
2022-09-23T00:53:29.055Z,95143.91
2022-09-23T00:56:13.219Z,95145.47
2022-09-23T00:58:56.332Z,95151.75
2022-09-23T01:01:40.251Z,95141.44
2022-09-23T01:04:24.663Z,95146.63
2022-09-23T01:07:09.050Z,95142.22
2022-09-23T01:09:52.288Z,95147.00
2022-09-23T01:12:48.931Z,95136.69
2022-09-23T01:15:40.634Z,95142.66
2022-09-23T01:18:33.249Z,95141.41
2022-09-23T01:21:29.460Z,95127.88
2022-09-23T01:24:47.162Z,95144.19
2022-09-23T01:27:59.110Z,95144.88
2022-09-23T01:30:49.736Z,95142.78
2022-09-23T01:33:39.586Z,95150.44
2022-09-23T01:36:27.635Z,95149.06
2022-09-23T01:39:18.466Z,95151.03
2022-09-23T01:42:04.047Z,95153.00
2022-09-23T01:44:52.603Z,95156.75
2022-09-23T01:47:41.344Z,95154.97
2022-09-23T01:50:47.681Z,95158.16
2022-09-23T01:53:39.172Z,95152.75
2022-09-23T01:56:26.976Z,95153.38
2022-09-23T01:59:16.114Z,95150.03
2022-09-23T02:02:05.735Z,95143.81
2022-09-23T02:04:55.646Z,95153.28
2022-09-23T02:07:42.858Z,95150.94
2022-09-23T02:10:32.216Z,95156.22
2022-09-23T02:13:19.380Z,95149.84
2022-09-23T02:16:08.712Z,95142.34
2022-09-23T02:18:56.961Z,95151.53
2022-09-23T02:21:44.854Z,95147.72
2022-09-23T02:24:31.270Z,95153.31
2022-09-23T02:27:24.590Z,95142.56
2022-09-23T02:30:12.300Z,95148.84
2022-09-23T02:33:00.082Z,95147.63
2022-09-23T02:35:50.338Z,95151.63
2022-09-23T02:38:39.117Z,95150.88
2022-09-23T02:41:29.341Z,95151.13
2022-09-23T02:44:15.830Z,95156.47
2022-09-23T02:46:58.902Z,95158.41
2022-09-23T02:49:42.219Z,95153.88
2022-09-23T02:52:25.773Z,95161.44
2022-09-23T02:55:13.428Z,95162.25
2022-09-23T02:57:56.474Z,95168.53
2022-09-23T03:00:51.284Z,95169.97
2022-09-23T03:03:43.063Z,95170.81
2022-09-23T03:06:30.561Z,95149.34
2022-09-23T03:09:21.446Z,95167.63
2022-09-23T03:12:15.764Z,95164.19
2022-09-23T03:15:06.037Z,95166.25
2022-09-23T03:17:57.427Z,95168.25
2022-09-23T03:20:46.380Z,95160.94
2022-09-23T03:23:35.784Z,95164.69
2022-09-23T03:26:23.478Z,95164.44
2022-09-23T03:29:11.527Z,95166.75
2022-09-23T03:31:56.157Z,95167.38
2022-09-23T03:34:43.154Z,95164.44
2022-09-23T03:37:31.372Z,95161.22
2022-09-23T03:40:19.412Z,95162.41
2022-09-23T03:43:04.579Z,95171.19
2022-09-23T03:45:49.180Z,95175.34
2022-09-23T03:48:32.266Z,95172.78
2022-09-23T03:51:22.847Z,95166.94
2022-09-23T03:54:06.247Z,95173.50
2022-09-23T03:56:49.764Z,95180.09
2022-09-23T03:59:32.949Z,95179.56
2022-09-23T04:02:17.956Z,95179.69
2022-09-23T04:05:01.123Z,95182.06
2022-09-23T04:07:44.127Z,95188.84
2022-09-23T04:10:27.091Z,95184.63
2022-09-23T04:13:10.111Z,95191.81
2022-09-23T04:15:53.101Z,95189.31
2022-09-23T04:18:37.499Z,95191.09
2022-09-23T04:21:20.622Z,95196.97
2022-09-23T04:24:03.624Z,95188.38
2022-09-23T04:26:46.667Z,95191.66
2022-09-23T04:29:29.765Z,95195.19
2022-09-23T04:32:12.739Z,95200.97
2022-09-23T04:34:57.454Z,95197.88
2022-09-23T04:37:40.475Z,95204.34
2022-09-23T04:40:23.462Z,95208.28
2022-09-23T04:43:09.485Z,95210.59
2022-09-23T04:46:01.613Z,95216.44
2022-09-23T04:48:45.090Z,95214.44
2022-09-23T04:51:30.044Z,95218.41
2022-09-23T04:54:14.607Z,95222.91
2022-09-23T04:56:57.603Z,95229.03
2022-09-23T04:59:41.413Z,95222.41
2022-09-23T05:02:24.822Z,95219.84
2022-09-23T05:05:08.619Z,95224.47
2022-09-23T05:07:56.177Z,95223.94
2022-09-23T05:10:39.193Z,95226.22
2022-09-23T05:13:22.578Z,95225.81
2022-09-23T05:16:09.296Z,95219.03
2022-09-23T05:18:54.392Z,95223.34
2022-09-23T05:21:37.852Z,95233.19
2022-09-23T05:24:23.140Z,95224.47
2022-09-23T05:27:07.891Z,95232.81
2022-09-23T05:29:52.452Z,95234.78
2022-09-23T05:32:35.512Z,95244.09
2022-09-23T05:35:18.621Z,95239.38
2022-09-23T05:38:01.630Z,95238.25
2022-09-23T05:40:46.274Z,95236.06
2022-09-23T05:43:30.085Z,95241.84
2022-09-23T05:46:14.926Z,95232.09
2022-09-23T05:49:02.487Z,95235.69
2022-09-23T05:51:49.311Z,95235.91
2022-09-23T05:54:32.359Z,95230.03
2022-09-23T05:57:16.763Z,95226.97
2022-09-23T05:59:59.805Z,95223.63
2022-09-23T06:02:42.829Z,95212.69
2022-09-23T06:05:28.823Z,95212.97
2022-09-23T06:08:12.769Z,95208.19
2022-09-23T06:10:56.265Z,95204.28
2022-09-23T06:13:41.798Z,95203.63
2022-09-23T06:16:24.925Z,95203.06
2022-09-23T06:19:08.049Z,95200.63
2022-09-23T06:21:51.152Z,95192.69
2022-09-23T06:24:34.247Z,95199.78
2022-09-23T06:27:17.214Z,95206.44
2022-09-23T06:30:01.585Z,95199.06
2022-09-23T06:32:49.898Z,95197.84
2022-09-23T06:35:33.338Z,95192.47
2022-09-23T06:38:16.304Z,95188.66
2022-09-23T06:40:59.909Z,95201.25
2022-09-23T06:43:42.913Z,95194.94
2022-09-23T06:46:28.177Z,95201.63
2022-09-23T06:49:13.417Z,95199.50
2022-09-23T06:51:56.982Z,95205.31
2022-09-23T06:54:40.000Z,95208.34
2022-09-23T06:57:22.981Z,95205.13
2022-09-23T07:00:07.513Z,95216.38
2022-09-23T07:02:52.027Z,95215.56
2022-09-23T07:05:35.153Z,95223.56
2022-09-23T07:08:21.096Z,95226.78
2022-09-23T07:11:06.317Z,95228.03
2022-09-23T07:13:49.355Z,95228.53
2022-09-23T07:16:33.091Z,95237.50
2022-09-23T07:19:17.500Z,95235.88
2022-09-23T07:22:00.513Z,95236.34
2022-09-23T07:24:44.029Z,95241.50
2022-09-23T07:27:28.631Z,95237.41
2022-09-23T07:30:22.421Z,95238.06
2022-09-23T07:33:27.172Z,95246.66
2022-09-23T07:36:17.946Z,95250.38
2022-09-23T07:39:03.670Z,95255.97
2022-09-23T07:41:46.701Z,95252.31
2022-09-23T07:44:32.026Z,95244.69
2022-09-23T07:47:15.748Z,95255.19
2022-09-23T07:49:58.775Z,95256.25
2022-09-23T07:52:43.387Z,95253.50
2022-09-23T07:55:26.580Z,95246.56
2022-09-23T07:58:09.644Z,95248.69
2022-09-23T08:00:53.845Z,95256.28
2022-09-23T08:03:37.046Z,95248.28
2022-09-23T08:06:20.444Z,95252.44
2022-09-23T08:09:06.464Z,95253.66
2022-09-23T08:11:50.735Z,95252.13
2022-09-23T08:14:33.861Z,95253.00
2022-09-23T08:17:17.061Z,95242.00
2022-09-23T08:20:00.111Z,95235.84
2022-09-23T08:22:43.100Z,95240.84
2022-09-23T08:25:27.532Z,95236.31
2022-09-23T08:28:10.520Z,95240.38
2022-09-23T08:30:54.077Z,95226.63
2022-09-23T08:33:37.090Z,95230.66
2022-09-23T08:36:20.185Z,95232.84
2022-09-23T08:39:03.573Z,95232.16
2022-09-23T08:41:59.899Z,95241.91
2022-09-23T08:44:50.760Z,95247.66
2022-09-23T08:47:43.826Z,95229.72
2022-09-23T08:50:37.203Z,95227.34
2022-09-23T08:53:25.677Z,95240.66
2022-09-23T08:56:14.428Z,95234.50
2022-09-23T08:59:05.301Z,95227.94
2022-09-23T09:01:51.953Z,95223.56
2022-09-23T09:04:44.478Z,95222.75
2022-09-23T09:07:36.543Z,95229.59
2022-09-23T09:10:24.793Z,95225.47
2022-09-23T09:13:20.955Z,95215.97
2022-09-23T09:16:36.378Z,95225.59
2022-09-23T09:19:47.347Z,95229.84
2022-09-23T09:22:48.113Z,95232.72
2022-09-23T09:25:47.079Z,95232.47
2022-09-23T09:28:36.557Z,95225.25
2022-09-23T09:31:30.584Z,95218.84
2022-09-23T09:34:24.567Z,95227.09
2022-09-23T09:37:13.769Z,95215.94
2022-09-23T09:39:57.266Z,95216.31
2022-09-23T09:42:42.769Z,95221.03
2022-09-23T09:45:36.241Z,95227.19
2022-09-23T09:48:32.480Z,95228.19
2022-09-23T09:51:21.633Z,95222.81
2022-09-23T09:54:23.105Z,95224.16
2022-09-23T09:57:08.944Z,95220.03
2022-09-23T09:59:52.103Z,95212.38
2022-09-23T10:02:37.806Z,95219.75
2022-09-23T10:05:28.582Z,95212.34
2022-09-23T10:08:24.753Z,95216.72
2022-09-23T10:11:15.332Z,95206.78
2022-09-23T10:14:09.512Z,95211.38
2022-09-23T10:17:05.325Z,95208.25
2022-09-23T10:19:51.018Z,95209.09
2022-09-23T10:22:39.297Z,95194.16
2022-09-23T10:25:26.804Z,95198.38
2022-09-23T10:28:34.011Z,95189.94
2022-09-23T10:31:25.332Z,95186.09
2022-09-23T10:34:25.077Z,95181.34
2022-09-23T10:37:18.455Z,95190.03
2022-09-23T10:40:32.320Z,95190.22
2022-09-23T10:43:46.620Z,95178.22
2022-09-23T10:46:41.671Z,95180.75
2022-09-23T10:49:47.789Z,95182.38
2022-09-23T10:52:43.542Z,95181.69
2022-09-23T10:55:50.022Z,95172.94
2022-09-23T10:58:50.717Z,95172.13
2022-09-23T11:01:44.321Z,95174.28
2022-09-23T11:04:48.412Z,95169.78
2022-09-23T11:07:37.385Z,95169.03
2022-09-23T11:10:55.878Z,95150.94
2022-09-23T11:14:17.321Z,95161.00
2022-09-23T11:17:16.216Z,95142.06
2022-09-23T11:20:11.974Z,95144.34
2022-09-23T11:23:23.947Z,95141.75
2022-09-23T11:26:26.830Z,95146.78
2022-09-23T11:29:23.376Z,95147.28
2022-09-23T11:32:28.159Z,95145.50
2022-09-23T11:35:20.581Z,95140.34
2022-09-23T11:38:09.137Z,95138.38
2022-09-23T11:40:58.649Z,95133.34
2022-09-23T11:43:45.704Z,95123.81
2022-09-23T11:46:38.483Z,95124.28
2022-09-23T11:49:31.992Z,95125.09
2022-09-23T11:52:19.788Z,95118.31
2022-09-23T11:55:18.554Z,95105.94
2022-09-23T11:58:22.973Z,95113.41
2022-09-23T12:01:15.197Z,95116.47
2022-09-23T12:04:18.082Z,95108.88
2022-09-23T12:07:09.976Z,95115.03
2022-09-23T12:09:59.865Z,95107.13
2022-09-23T12:12:52.592Z,95102.91
2022-09-23T12:15:50.753Z,95105.28
2022-09-23T12:18:47.395Z,95102.69
2022-09-23T12:21:51.574Z,95105.28
2022-09-23T12:24:48.269Z,95111.41
2022-09-23T12:27:38.588Z,95111.41
2022-09-23T12:30:24.399Z,95114.03
2022-09-23T12:33:17.414Z,95103.75
2022-09-23T12:36:06.839Z,95095.56
2022-09-23T12:38:53.328Z,95109.53
2022-09-23T12:41:38.852Z,95102.75
2022-09-23T12:44:32.680Z,95105.41
2022-09-23T12:47:38.578Z,95111.19
2022-09-23T12:50:54.220Z,95114.63
2022-09-23T12:53:55.504Z,95115.09
2022-09-23T12:57:02.785Z,95111.94
2022-09-23T13:00:00.516Z,95113.97
2022-09-23T13:03:08.104Z,95111.56
2022-09-23T13:06:11.798Z,95109.03
2022-09-23T13:08:56.396Z,95118.44
2022-09-23T13:11:41.607Z,95114.59
2022-09-23T13:14:27.682Z,95112.72
2022-09-23T13:17:26.002Z,95108.22
2022-09-23T13:20:36.946Z,95113.16
2022-09-23T13:23:24.546Z,95107.59
2022-09-23T13:26:13.873Z,95123.88
2022-09-23T13:29:00.162Z,95111.81
2022-09-23T13:31:44.134Z,95110.22
2022-09-23T13:34:31.641Z,95109.31
2022-09-23T13:37:22.625Z,95109.09
2022-09-23T13:40:17.420Z,95110.53
2022-09-23T13:43:04.624Z,95110.41
2022-09-23T13:45:47.745Z,95114.22
2022-09-23T13:48:30.939Z,95110.47
2022-09-23T13:51:26.035Z,95113.25
2022-09-23T13:54:31.130Z,95109.50
2022-09-23T13:57:26.767Z,95105.88
2022-09-23T14:00:21.081Z,95101.56
2022-09-23T14:03:06.540Z,95094.28
2022-09-23T14:05:50.268Z,95093.56
2022-09-23T14:08:34.237Z,95089.44
2022-09-23T14:11:18.468Z,95089.63
2022-09-23T14:14:09.188Z,95096.75
2022-09-23T14:16:55.160Z,95087.75
2022-09-23T14:19:38.609Z,95080.09
2022-09-23T14:22:26.458Z,95086.50
2022-09-23T14:25:15.009Z,95079.69
2022-09-23T14:28:00.484Z,95083.88
2022-09-23T14:30:46.170Z,95090.41
2022-09-23T14:33:34.099Z,95080.03
2022-09-23T14:36:36.701Z,95083.41
2022-09-23T14:39:19.911Z,95077.16
2022-09-23T14:42:06.729Z,95086.47
2022-09-23T14:44:51.235Z,95083.41
2022-09-23T14:47:36.477Z,95077.28
2022-09-23T14:50:39.946Z,95084.59
2022-09-23T14:53:46.453Z,95080.34
2022-09-23T14:56:42.719Z,95072.09
2022-09-23T14:59:28.491Z,95078.03
2022-09-23T15:02:32.766Z,95081.03
2022-09-23T15:05:19.157Z,95071.00
2022-09-23T15:08:04.482Z,95077.91
2022-09-23T15:10:48.248Z,95067.38
2022-09-23T15:13:33.389Z,95084.16
2022-09-23T15:16:17.827Z,95086.56
2022-09-23T15:19:02.204Z,95083.72
2022-09-23T15:21:51.927Z,95084.19
2022-09-23T15:24:45.394Z,95084.97
2022-09-23T15:27:33.711Z,95087.38
2022-09-23T15:30:18.650Z,95094.50
2022-09-23T15:33:02.404Z,95083.94
2022-09-23T15:35:50.152Z,95097.66
2022-09-23T15:38:33.745Z,95097.47
2022-09-23T15:41:20.521Z,95097.22
2022-09-23T15:44:09.120Z,95094.31
2022-09-23T15:46:54.034Z,95094.16
2022-09-23T15:49:40.251Z,95107.00
2022-09-23T15:52:23.319Z,95104.59
2022-09-23T15:55:16.055Z,95103.88
2022-09-23T15:58:01.957Z,95108.84
2022-09-23T16:00:45.209Z,95108.72
2022-09-23T16:03:29.458Z,95115.75
2022-09-23T16:06:13.564Z,95110.13
2022-09-23T16:09:04.019Z,95116.28
2022-09-23T16:11:49.755Z,95117.34
2022-09-23T16:14:34.173Z,95127.38
2022-09-23T16:17:18.552Z,95124.59
2022-09-23T16:20:02.192Z,95124.59
2022-09-23T16:22:50.765Z,95120.19
2022-09-23T16:25:35.975Z,95125.41
2022-09-23T16:28:20.131Z,95129.31
2022-09-23T16:31:05.024Z,95124.34
2022-09-23T16:33:52.008Z,95126.28
2022-09-23T16:36:37.371Z,95131.25
2022-09-23T16:39:22.128Z,95133.88
2022-09-23T16:42:05.366Z,95135.59
2022-09-23T16:44:51.684Z,95140.56
2022-09-23T16:47:36.251Z,95142.50
2022-09-23T16:50:22.705Z,95145.31
2022-09-23T16:53:06.250Z,95152.56
2022-09-23T16:55:49.484Z,95157.53
2022-09-23T16:58:32.481Z,95161.38
2022-09-23T17:01:34.605Z,95165.66
2022-09-23T17:04:20.187Z,95164.97
2022-09-23T17:07:05.939Z,95172.22
2022-09-23T17:09:51.018Z,95172.66
2022-09-23T17:12:35.174Z,95178.63
2022-09-23T17:15:18.462Z,95175.31
2022-09-23T17:18:01.934Z,95174.31
2022-09-23T17:20:46.344Z,95182.97
2022-09-23T17:23:31.555Z,95188.66
2022-09-23T17:26:15.196Z,95186.63
2022-09-23T17:28:59.455Z,95190.38
2022-09-23T17:31:42.532Z,95199.06
2022-09-23T17:34:25.766Z,95199.06
2022-09-23T17:37:10.151Z,95193.69
2022-09-23T17:39:53.119Z,95198.75
2022-09-23T17:42:41.363Z,95192.75
2022-09-23T17:45:24.408Z,95199.19
2022-09-23T17:48:07.514Z,95193.72
2022-09-23T17:50:57.185Z,95191.13
2022-09-23T17:53:44.167Z,95193.56
2022-09-23T17:56:29.968Z,95197.41
2022-09-23T17:59:13.759Z,95200.63
2022-09-23T18:01:56.769Z,95201.69
2022-09-23T18:04:39.799Z,95201.69
2022-09-23T18:07:22.834Z,95208.78
2022-09-23T18:10:09.050Z,95197.34
2022-09-23T18:12:52.145Z,95205.44
2022-09-23T18:15:36.784Z,95212.09
2022-09-23T18:18:19.793Z,95212.66
2022-09-23T18:21:03.013Z,95214.38
2022-09-23T18:23:45.982Z,95225.63
2022-09-23T18:26:30.708Z,95226.91
2022-09-23T18:29:15.919Z,95223.84
2022-09-23T18:31:59.536Z,95218.34
2022-09-23T18:34:42.690Z,95226.38
2022-09-23T18:37:25.982Z,95229.69
2022-09-23T18:40:14.432Z,95228.16
2022-09-23T18:42:59.119Z,95224.84
2022-09-23T18:45:42.147Z,95222.28
2022-09-23T18:48:42.459Z,95228.47
2022-09-23T18:51:28.530Z,95230.72
2022-09-23T18:54:11.541Z,95231.97
2022-09-23T18:56:54.743Z,95230.81
2022-09-23T18:59:40.145Z,95233.63
2022-09-23T19:02:23.158Z,95232.06
2022-09-23T19:05:06.850Z,95230.13
2022-09-23T19:07:49.830Z,95241.72
2022-09-23T19:10:32.816Z,95236.94
2022-09-23T19:13:15.800Z,95229.56
2022-09-23T19:16:04.702Z,95241.75
2022-09-23T19:18:47.788Z,95254.53
2022-09-23T19:21:31.242Z,95249.94
2022-09-23T19:24:19.973Z,95252.75
2022-09-23T19:27:03.398Z,95243.38
2022-09-23T19:29:47.506Z,95244.63
2022-09-23T19:32:33.410Z,95241.81
2022-09-23T19:35:16.532Z,95249.00
2022-09-23T19:37:59.548Z,95255.78
2022-09-23T19:40:45.455Z,95256.38
2022-09-23T19:43:30.775Z,95265.16
2022-09-23T19:46:13.800Z,95254.56
2022-09-23T19:48:58.631Z,95260.56
2022-09-23T19:51:44.014Z,95252.19
2022-09-23T19:54:27.678Z,95264.94
2022-09-23T19:57:10.880Z,95260.59
2022-09-23T19:59:54.574Z,95252.63
2022-09-23T20:02:37.596Z,95263.38
2022-09-23T20:05:22.331Z,95259.38
2022-09-23T20:08:05.586Z,95260.19
2022-09-23T20:10:49.872Z,95259.38
2022-09-23T20:13:33.902Z,95262.59
2022-09-23T20:16:18.766Z,95261.78
2022-09-23T20:19:04.176Z,95251.41
2022-09-23T20:22:09.036Z,95260.38
2022-09-23T20:24:52.918Z,95251.00
2022-09-23T20:27:35.006Z,95254.59
2022-09-23T20:30:18.456Z,95253.78
2022-09-23T20:33:01.518Z,95255.78
2022-09-23T20:35:44.604Z,95261.38
2022-09-23T20:38:29.183Z,95264.94
2022-09-23T20:41:12.396Z,95274.09
2022-09-23T20:43:56.013Z,95274.50
2022-09-23T20:46:41.884Z,95278.50
2022-09-23T20:49:27.016Z,95275.31
2022-09-23T20:52:10.242Z,95279.25
2022-09-23T20:54:54.629Z,95280.66
2022-09-23T20:57:37.648Z,95288.81
2022-09-23T21:00:20.860Z,95293.97
2022-09-23T21:03:03.888Z,95293.19
2022-09-23T21:05:48.042Z,95299.34
2022-09-23T21:08:31.401Z,95300.31
2022-09-23T21:11:17.952Z,95302.31
2022-09-23T21:14:01.495Z,95303.09
2022-09-23T21:16:44.805Z,95297.91
2022-09-23T21:19:28.015Z,95290.94
2022-09-23T21:22:12.421Z,95298.41
2022-09-23T21:25:26.469Z,95295.19
2022-09-23T21:28:01.890Z,95292.41
2022-09-23T21:30:48.590Z,95300.16
2022-09-23T21:33:36.436Z,95298.75
2022-09-23T21:36:19.486Z,95297.16
2022-09-23T21:39:03.126Z,95293.94
2022-09-23T21:41:46.120Z,95298.72
2022-09-23T21:44:30.645Z,95295.94
2022-09-23T21:47:13.800Z,95298.69
2022-09-23T21:49:56.793Z,95300.06
2022-09-23T21:52:40.232Z,95298.84
2022-09-23T21:55:23.286Z,95304.56
2022-09-23T21:58:06.291Z,95304.00
2022-09-23T22:00:50.794Z,95306.28
2022-09-23T22:03:33.898Z,95309.69
2022-09-23T22:06:21.523Z,95307.06
2022-09-23T22:09:08.923Z,95305.00
2022-09-23T22:12:09.848Z,95308.19
2022-09-23T22:14:52.934Z,95301.25
2022-09-23T22:17:37.281Z,95301.25
2022-09-23T22:20:20.363Z,95300.16
2022-09-23T22:23:03.418Z,95300.94
2022-09-23T22:25:46.434Z,95304.50
2022-09-23T22:28:53.199Z,95296.97
2022-09-23T22:31:54.108Z,95313.69
2022-09-23T22:34:49.375Z,95309.91
2022-09-23T22:37:35.228Z,95316.44
2022-09-23T22:40:18.558Z,95309.91
2022-09-23T22:43:02.811Z,95309.91
2022-09-23T22:45:50.804Z,95304.47
2022-09-23T22:48:33.767Z,95304.47
2022-09-23T22:51:18.206Z,95306.38
2022-09-23T22:54:01.545Z,95308.94
2022-09-23T22:56:44.535Z,95303.25
2022-09-23T22:59:27.582Z,95304.41
2022-09-23T23:02:10.603Z,95296.00
2022-09-23T23:04:56.193Z,95302.31
2022-09-23T23:07:40.647Z,95297.97
2022-09-23T23:10:24.772Z,95294.34
2022-09-23T23:13:07.742Z,95302.84
2022-09-23T23:15:50.831Z,95306.41
2022-09-23T23:18:35.554Z,95303.63
2022-09-23T23:21:19.853Z,95302.22
2022-09-23T23:24:05.729Z,95298.78
2022-09-23T23:26:49.397Z,95289.34
2022-09-23T23:29:32.416Z,95306.72
2022-09-23T23:32:15.672Z,95303.09
2022-09-23T23:34:58.671Z,95303.28
2022-09-23T23:37:41.661Z,95297.81
2022-09-23T23:40:27.989Z,95297.22
2022-09-23T23:43:11.121Z,95298.75
2022-09-23T23:45:54.082Z,95293.50
2022-09-23T23:48:38.378Z,95289.59
2022-09-23T23:51:21.799Z,95286.09
2022-09-23T23:54:05.055Z,95284.50
2022-09-23T23:56:49.520Z,95279.28
2022-09-23T23:59:34.402Z,95276.13
